sensor_id;sensor_type;location;lat;lon;timestamp;P1;durP1;ratioP1;P2;durP2;ratioP2
7939;SDS011;4015;48.888;9.226;2024-03-23T00:53:46;10.30;;;7.23;;
7939;SDS011;4015;48.888;9.226;2024-03-23T00:56:12;11.73;;;7.87;;
7939;SDS011;4015;48.888;9.226;2024-03-23T00:58:37;15.57;;;7.93;;
7939;SDS011;4015;48.888;9.226;2024-03-23T01:01:03;13.30;;;7.97;;
7939;SDS011;4015;48.888;9.226;2024-03-23T01:03:31;13.77;;;8.10;;
7939;SDS011;4015;48.888;9.226;2024-03-23T01:05:59;7.77;;;6.87;;
7939;SDS011;4015;48.888;9.226;2024-03-23T01:08:25;11.87;;;7.50;;
7939;SDS011;4015;48.888;9.226;2024-03-23T01:10:57;12.67;;;7.80;;
7939;SDS011;4015;48.888;9.226;2024-03-23T01:13:24;10.83;;;7.60;;
7939;SDS011;4015;48.888;9.226;2024-03-23T01:15:49;9.97;;;6.73;;
7939;SDS011;4015;48.888;9.226;2024-03-23T01:18:16;13.43;;;7.80;;
7939;SDS011;4015;48.888;9.226;2024-03-23T01:20:42;12.77;;;7.70;;
7939;SDS011;4015;48.888;9.226;2024-03-23T01:23:08;9.50;;;7.13;;
7939;SDS011;4015;48.888;9.226;2024-03-23T01:25:33;10.20;;;7.50;;
7939;SDS011;4015;48.888;9.226;2024-03-23T01:27:58;11.37;;;6.43;;
7939;SDS011;4015;48.888;9.226;2024-03-23T01:30:24;13.00;;;7.13;;
7939;SDS011;4015;48.888;9.226;2024-03-23T01:32:49;12.07;;;7.80;;
7939;SDS011;4015;48.888;9.226;2024-03-23T01:35:14;16.50;;;8.10;;
7939;SDS011;4015;48.888;9.226;2024-03-23T01:37:39;11.43;;;8.20;;
7939;SDS011;4015;48.888;9.226;2024-03-23T01:40:05;10.47;;;8.17;;
7939;SDS011;4015;48.888;9.226;2024-03-23T01:42:31;10.67;;;7.30;;
7939;SDS011;4015;48.888;9.226;2024-03-23T01:44:56;12.70;;;9.13;;
7939;SDS011;4015;48.888;9.226;2024-03-23T01:47:21;11.80;;;8.00;;
7939;SDS011;4015;48.888;9.226;2024-03-23T01:49:47;9.80;;;7.07;;
7939;SDS011;4015;48.888;9.226;2024-03-23T01:52:12;10.10;;;6.43;;
7939;SDS011;4015;48.888;9.226;2024-03-23T01:54:38;7.97;;;6.10;;
7939;SDS011;4015;48.888;9.226;2024-03-23T01:57:04;7.87;;;6.70;;
7939;SDS011;4015;48.888;9.226;2024-03-23T01:59:29;8.57;;;6.33;;
7939;SDS011;4015;48.888;9.226;2024-03-23T02:01:55;9.73;;;6.33;;
7939;SDS011;4015;48.888;9.226;2024-03-23T02:04:20;8.63;;;6.60;;
7939;SDS011;4015;48.888;9.226;2024-03-23T02:06:45;8.60;;;6.40;;
7939;SDS011;4015;48.888;9.226;2024-03-23T02:09:10;8.90;;;7.47;;
7939;SDS011;4015;48.888;9.226;2024-03-23T02:11:36;10.00;;;7.00;;
7939;SDS011;4015;48.888;9.226;2024-03-23T02:14:01;9.80;;;7.80;;
7939;SDS011;4015;48.888;9.226;2024-03-23T02:16:27;8.60;;;7.47;;
7939;SDS011;4015;48.888;9.226;2024-03-23T02:18:52;10.57;;;7.50;;
7939;SDS011;4015;48.888;9.226;2024-03-23T02:21:17;9.13;;;5.97;;
7939;SDS011;4015;48.888;9.226;2024-03-23T02:23:43;6.60;;;5.17;;
7939;SDS011;4015;48.888;9.226;2024-03-23T02:26:08;5.90;;;4.50;;
7939;SDS011;4015;48.888;9.226;2024-03-23T02:28:33;7.43;;;3.60;;
7939;SDS011;4015;48.888;9.226;2024-03-23T02:30:58;4.93;;;3.40;;
7939;SDS011;4015;48.888;9.226;2024-03-23T02:33:26;5.43;;;2.93;;
7939;SDS011;4015;48.888;9.226;2024-03-23T02:35:55;2.73;;;2.43;;
7939;SDS011;4015;48.888;9.226;2024-03-23T02:38:21;3.63;;;2.63;;
7939;SDS011;4015;48.888;9.226;2024-03-23T02:40:46;3.60;;;2.63;;
7939;SDS011;4015;48.888;9.226;2024-03-23T02:43:11;3.60;;;2.47;;
7939;SDS011;4015;48.888;9.226;2024-03-23T02:45:37;3.10;;;2.10;;
7939;SDS011;4015;48.888;9.226;2024-03-23T02:48:02;2.73;;;2.33;;
7939;SDS011;4015;48.888;9.226;2024-03-23T02:50:28;2.97;;;2.27;;
7939;SDS011;4015;48.888;9.226;2024-03-23T02:52:54;2.83;;;2.33;;
7939;SDS011;4015;48.888;9.226;2024-03-23T02:55:19;3.97;;;2.53;;
7939;SDS011;4015;48.888;9.226;2024-03-23T02:57:44;5.07;;;2.83;;
7939;SDS011;4015;48.888;9.226;2024-03-23T03:00:10;7.03;;;2.47;;
7939;SDS011;4015;48.888;9.226;2024-03-23T03:02:36;4.67;;;2.60;;
7939;SDS011;4015;48.888;9.226;2024-03-23T03:05:02;4.37;;;2.20;;
7939;SDS011;4015;48.888;9.226;2024-03-23T03:07:29;3.50;;;2.23;;
7939;SDS011;4015;48.888;9.226;2024-03-23T03:09:55;4.00;;;2.37;;
7939;SDS011;4015;48.888;9.226;2024-03-23T03:12:20;1.97;;;1.80;;
7939;SDS011;4015;48.888;9.226;2024-03-23T03:14:45;3.23;;;2.10;;
7939;SDS011;4015;48.888;9.226;2024-03-23T03:17:11;2.57;;;2.13;;
7939;SDS011;4015;48.888;9.226;2024-03-23T03:19:36;2.47;;;2.20;;
7939;SDS011;4015;48.888;9.226;2024-03-23T03:22:02;2.83;;;2.47;;
7939;SDS011;4015;48.888;9.226;2024-03-23T03:24:29;2.97;;;2.30;;
7939;SDS011;4015;48.888;9.226;2024-03-23T03:26:54;2.33;;;2.00;;
7939;SDS011;4015;48.888;9.226;2024-03-23T03:29:19;4.03;;;2.13;;
7939;SDS011;4015;48.888;9.226;2024-03-23T03:31:45;3.07;;;2.20;;
7939;SDS011;4015;48.888;9.226;2024-03-23T03:34:11;4.60;;;2.57;;
7939;SDS011;4015;48.888;9.226;2024-03-23T03:36:36;4.30;;;2.80;;
7939;SDS011;4015;48.888;9.226;2024-03-23T03:39:02;3.93;;;2.57;;
7939;SDS011;4015;48.888;9.226;2024-03-23T03:41:28;4.63;;;2.83;;
7939;SDS011;4015;48.888;9.226;2024-03-23T03:43:54;4.73;;;2.83;;
7939;SDS011;4015;48.888;9.226;2024-03-23T03:46:20;3.17;;;2.00;;
7939;SDS011;4015;48.888;9.226;2024-03-23T03:48:45;11.50;;;3.30;;
7939;SDS011;4015;48.888;9.226;2024-03-23T03:51:12;3.13;;;2.33;;
7939;SDS011;4015;48.888;9.226;2024-03-23T03:53:38;3.43;;;2.70;;
7939;SDS011;4015;48.888;9.226;2024-03-23T03:56:03;2.97;;;2.50;;
7939;SDS011;4015;48.888;9.226;2024-03-23T03:58:29;4.03;;;2.90;;
7939;SDS011;4015;48.888;9.226;2024-03-23T04:00:54;2.87;;;2.57;;
7939;SDS011;4015;48.888;9.226;2024-03-23T04:03:20;2.67;;;2.37;;
7939;SDS011;4015;48.888;9.226;2024-03-23T04:05:52;2.93;;;2.60;;
7939;SDS011;4015;48.888;9.226;2024-03-23T04:08:19;8.87;;;3.20;;
7939;SDS011;4015;48.888;9.226;2024-03-23T04:10:44;3.33;;;3.03;;
7939;SDS011;4015;48.888;9.226;2024-03-23T04:13:10;2.90;;;2.70;;
7939;SDS011;4015;48.888;9.226;2024-03-23T04:15:36;3.83;;;3.20;;
7939;SDS011;4015;48.888;9.226;2024-03-23T04:18:02;3.33;;;2.50;;
7939;SDS011;4015;48.888;9.226;2024-03-23T04:20:27;5.43;;;2.70;;
7939;SDS011;4015;48.888;9.226;2024-03-23T04:22:52;3.83;;;2.50;;
7939;SDS011;4015;48.888;9.226;2024-03-23T04:25:18;2.90;;;2.60;;
7939;SDS011;4015;48.888;9.226;2024-03-23T04:27:44;4.20;;;3.03;;
7939;SDS011;4015;48.888;9.226;2024-03-23T04:30:10;4.33;;;3.00;;
7939;SDS011;4015;48.888;9.226;2024-03-23T04:32:39;3.47;;;3.17;;
7939;SDS011;4015;48.888;9.226;2024-03-23T04:35:05;4.27;;;3.80;;
7939;SDS011;4015;48.888;9.226;2024-03-23T04:37:31;7.50;;;4.50;;
7939;SDS011;4015;48.888;9.226;2024-03-23T04:39:59;7.80;;;5.30;;
7939;SDS011;4015;48.888;9.226;2024-03-23T04:42:28;8.77;;;6.43;;
7939;SDS011;4015;48.888;9.226;2024-03-23T04:44:54;9.73;;;7.70;;
7939;SDS011;4015;48.888;9.226;2024-03-23T04:47:19;14.17;;;8.87;;
7939;SDS011;4015;48.888;9.226;2024-03-23T04:49:44;12.13;;;9.23;;
7939;SDS011;4015;48.888;9.226;2024-03-23T04:52:10;13.17;;;9.93;;
7939;SDS011;4015;48.888;9.226;2024-03-23T04:54:35;15.47;;;10.80;;
7939;SDS011;4015;48.888;9.226;2024-03-23T04:57:00;15.27;;;12.53;;
7939;SDS011;4015;48.888;9.226;2024-03-23T04:59:26;13.93;;;12.40;;
7939;SDS011;4015;48.888;9.226;2024-03-23T05:01:51;15.67;;;12.23;;
7939;SDS011;4015;48.888;9.226;2024-03-23T05:04:16;15.47;;;12.20;;
7939;SDS011;4015;48.888;9.226;2024-03-23T05:06:42;15.20;;;11.93;;
7939;SDS011;4015;48.888;9.226;2024-03-23T05:09:08;14.77;;;12.87;;
7939;SDS011;4015;48.888;9.226;2024-03-23T05:11:36;16.80;;;12.53;;
7939;SDS011;4015;48.888;9.226;2024-03-23T05:14:05;17.80;;;12.23;;
7939;SDS011;4015;48.888;9.226;2024-03-23T05:16:30;15.63;;;12.00;;
7939;SDS011;4015;48.888;9.226;2024-03-23T05:18:55;15.77;;;12.70;;
7939;SDS011;4015;48.888;9.226;2024-03-23T05:21:21;15.33;;;12.43;;
7939;SDS011;4015;48.888;9.226;2024-03-23T05:23:46;16.20;;;12.63;;
7939;SDS011;4015;48.888;9.226;2024-03-23T05:26:12;17.13;;;12.77;;
7939;SDS011;4015;48.888;9.226;2024-03-23T05:28:37;19.03;;;12.50;;
7939;SDS011;4015;48.888;9.226;2024-03-23T05:31:03;15.03;;;11.97;;
7939;SDS011;4015;48.888;9.226;2024-03-23T05:33:28;14.77;;;9.17;;
7939;SDS011;4015;48.888;9.226;2024-03-23T05:35:57;13.63;;;10.13;;
7939;SDS011;4015;48.888;9.226;2024-03-23T05:38:24;11.33;;;9.67;;
7939;SDS011;4015;48.888;9.226;2024-03-23T05:40:56;12.47;;;10.40;;
7939;SDS011;4015;48.888;9.226;2024-03-23T05:43:22;13.30;;;9.77;;
7939;SDS011;4015;48.888;9.226;2024-03-23T05:45:57;12.63;;;9.60;;
7939;SDS011;4015;48.888;9.226;2024-03-23T05:48:24;12.17;;;9.83;;
7939;SDS011;4015;48.888;9.226;2024-03-23T05:50:50;12.47;;;9.90;;
7939;SDS011;4015;48.888;9.226;2024-03-23T05:53:16;10.33;;;8.03;;
7939;SDS011;4015;48.888;9.226;2024-03-23T05:55:42;14.77;;;9.23;;
7939;SDS011;4015;48.888;9.226;2024-03-23T05:58:08;9.00;;;6.80;;
7939;SDS011;4015;48.888;9.226;2024-03-23T06:00:33;9.30;;;6.87;;
7939;SDS011;4015;48.888;9.226;2024-03-23T06:02:59;7.37;;;6.07;;
7939;SDS011;4015;48.888;9.226;2024-03-23T06:05:24;9.83;;;6.73;;
7939;SDS011;4015;48.888;9.226;2024-03-23T06:07:50;9.93;;;6.83;;
7939;SDS011;4015;48.888;9.226;2024-03-23T06:10:15;6.87;;;5.57;;
7939;SDS011;4015;48.888;9.226;2024-03-23T06:12:40;6.03;;;5.43;;
7939;SDS011;4015;48.888;9.226;2024-03-23T06:15:06;7.50;;;5.07;;
7939;SDS011;4015;48.888;9.226;2024-03-23T06:17:35;7.07;;;5.87;;
7939;SDS011;4015;48.888;9.226;2024-03-23T06:20:01;6.97;;;5.97;;
7939;SDS011;4015;48.888;9.226;2024-03-23T06:22:26;7.20;;;6.10;;
7939;SDS011;4015;48.888;9.226;2024-03-23T06:24:51;7.50;;;5.77;;
7939;SDS011;4015;48.888;9.226;2024-03-23T06:27:17;5.90;;;4.33;;
7939;SDS011;4015;48.888;9.226;2024-03-23T06:29:42;6.73;;;4.70;;
7939;SDS011;4015;48.888;9.226;2024-03-23T06:32:07;6.93;;;4.37;;
7939;SDS011;4015;48.888;9.226;2024-03-23T06:34:33;4.27;;;3.83;;
7939;SDS011;4015;48.888;9.226;2024-03-23T06:36:58;5.20;;;3.90;;
7939;SDS011;4015;48.888;9.226;2024-03-23T06:39:23;4.97;;;3.47;;
7939;SDS011;4015;48.888;9.226;2024-03-23T06:41:52;4.43;;;3.10;;
7939;SDS011;4015;48.888;9.226;2024-03-23T06:44:18;4.13;;;2.73;;
7939;SDS011;4015;48.888;9.226;2024-03-23T06:46:44;3.17;;;2.30;;
7939;SDS011;4015;48.888;9.226;2024-03-23T06:49:10;3.10;;;2.70;;
7939;SDS011;4015;48.888;9.226;2024-03-23T06:51:35;3.90;;;2.53;;
7939;SDS011;4015;48.888;9.226;2024-03-23T06:54:02;3.53;;;2.00;;
7939;SDS011;4015;48.888;9.226;2024-03-23T06:56:28;2.00;;;1.80;;
7939;SDS011;4015;48.888;9.226;2024-03-23T06:58:54;2.70;;;1.67;;
7939;SDS011;4015;48.888;9.226;2024-03-23T07:01:19;2.37;;;1.13;;
7939;SDS011;4015;48.888;9.226;2024-03-23T07:03:44;1.40;;;1.30;;
7939;SDS011;4015;48.888;9.226;2024-03-23T07:06:10;1.63;;;1.40;;
7939;SDS011;4015;48.888;9.226;2024-03-23T07:08:35;1.60;;;1.40;;
7939;SDS011;4015;48.888;9.226;2024-03-23T07:11:01;1.10;;;1.00;;
7939;SDS011;4015;48.888;9.226;2024-03-23T07:13:27;0.93;;;0.93;;
7939;SDS011;4015;48.888;9.226;2024-03-23T07:15:53;1.30;;;1.00;;
7939;SDS011;4015;48.888;9.226;2024-03-23T07:18:20;1.27;;;1.00;;
7939;SDS011;4015;48.888;9.226;2024-03-23T07:20:56;1.30;;;1.20;;
7939;SDS011;4015;48.888;9.226;2024-03-23T07:23:22;1.30;;;1.20;;
7939;SDS011;4015;48.888;9.226;2024-03-23T07:26:01;4.30;;;1.00;;
7939;SDS011;4015;48.888;9.226;2024-03-23T07:28:28;0.90;;;0.90;;
7939;SDS011;4015;48.888;9.226;2024-03-23T07:33:31;4.63;;;1.00;;
7939;SDS011;4015;48.888;9.226;2024-03-23T07:35:57;1.13;;;1.03;;
7939;SDS011;4015;48.888;9.226;2024-03-23T07:38:24;1.70;;;0.90;;
7939;SDS011;4015;48.888;9.226;2024-03-23T07:40:49;2.30;;;1.00;;
7939;SDS011;4015;48.888;9.226;2024-03-23T07:43:21;1.30;;;1.20;;
7939;SDS011;4015;48.888;9.226;2024-03-23T07:45:52;1.30;;;1.10;;
7939;SDS011;4015;48.888;9.226;2024-03-23T07:48:21;1.63;;;1.00;;
7939;SDS011;4015;48.888;9.226;2024-03-23T07:50:57;1.30;;;1.20;;
7939;SDS011;4015;48.888;9.226;2024-03-23T07:53:27;1.17;;;1.07;;
7939;SDS011;4015;48.888;9.226;2024-03-23T07:55:56;1.20;;;1.10;;
7939;SDS011;4015;48.888;9.226;2024-03-23T07:58:23;1.30;;;1.20;;
7939;SDS011;4015;48.888;9.226;2024-03-23T08:00:49;1.73;;;1.13;;
7939;SDS011;4015;48.888;9.226;2024-03-23T08:03:15;1.20;;;1.10;;
7939;SDS011;4015;48.888;9.226;2024-03-23T08:05:40;1.20;;;1.10;;
7939;SDS011;4015;48.888;9.226;2024-03-23T08:08:05;0.93;;;0.87;;
7939;SDS011;4015;48.888;9.226;2024-03-23T08:10:31;2.13;;;1.10;;
7939;SDS011;4015;48.888;9.226;2024-03-23T08:12:56;1.10;;;1.00;;
7939;SDS011;4015;48.888;9.226;2024-03-23T08:15:21;1.10;;;1.00;;
7939;SDS011;4015;48.888;9.226;2024-03-23T08:17:47;0.87;;;0.87;;
7939;SDS011;4015;48.888;9.226;2024-03-23T08:20:12;1.43;;;0.90;;
7939;SDS011;4015;48.888;9.226;2024-03-23T08:22:37;0.70;;;0.70;;
7939;SDS011;4015;48.888;9.226;2024-03-23T08:25:03;1.07;;;0.70;;
7939;SDS011;4015;48.888;9.226;2024-03-23T08:27:28;3.33;;;1.00;;
7939;SDS011;4015;48.888;9.226;2024-03-23T08:29:53;0.97;;;0.70;;
7939;SDS011;4015;48.888;9.226;2024-03-23T08:32:19;0.70;;;0.70;;
7939;SDS011;4015;48.888;9.226;2024-03-23T08:34:44;0.67;;;0.60;;
7939;SDS011;4015;48.888;9.226;2024-03-23T08:37:10;0.93;;;0.90;;
7939;SDS011;4015;48.888;9.226;2024-03-23T08:39:35;0.73;;;0.73;;
7939;SDS011;4015;48.888;9.226;2024-03-23T08:42:00;1.40;;;0.83;;
7939;SDS011;4015;48.888;9.226;2024-03-23T08:44:26;0.90;;;0.90;;
7939;SDS011;4015;48.888;9.226;2024-03-23T08:46:51;1.20;;;0.90;;
7939;SDS011;4015;48.888;9.226;2024-03-23T08:49:16;1.93;;;1.17;;
7939;SDS011;4015;48.888;9.226;2024-03-23T08:51:43;1.37;;;1.23;;
7939;SDS011;4015;48.888;9.226;2024-03-23T08:54:08;1.53;;;1.10;;
7939;SDS011;4015;48.888;9.226;2024-03-23T08:56:34;2.60;;;1.77;;
7939;SDS011;4015;48.888;9.226;2024-03-23T08:58:59;2.37;;;1.50;;
7939;SDS011;4015;48.888;9.226;2024-03-23T09:01:24;2.20;;;1.23;;
7939;SDS011;4015;48.888;9.226;2024-03-23T09:03:49;1.43;;;1.10;;
7939;SDS011;4015;48.888;9.226;2024-03-23T09:06:15;2.07;;;1.40;;
7939;SDS011;4015;48.888;9.226;2024-03-23T09:08:41;1.97;;;1.23;;
7939;SDS011;4015;48.888;9.226;2024-03-23T09:11:07;2.27;;;1.37;;
7939;SDS011;4015;48.888;9.226;2024-03-23T09:13:34;2.27;;;1.30;;
7939;SDS011;4015;48.888;9.226;2024-03-23T09:16:00;2.17;;;1.17;;
7939;SDS011;4015;48.888;9.226;2024-03-23T09:18:25;3.50;;;1.40;;
7939;SDS011;4015;48.888;9.226;2024-03-23T09:20:51;6.17;;;1.57;;
7939;SDS011;4015;48.888;9.226;2024-03-23T09:23:18;2.43;;;1.77;;
7939;SDS011;4015;48.888;9.226;2024-03-23T09:25:43;4.87;;;2.93;;
7939;SDS011;4015;48.888;9.226;2024-03-23T09:28:09;3.43;;;2.13;;
7939;SDS011;4015;48.888;9.226;2024-03-23T09:30:34;9.03;;;2.73;;
7939;SDS011;4015;48.888;9.226;2024-03-23T09:33:00;6.23;;;2.30;;
7939;SDS011;4015;48.888;9.226;2024-03-23T09:35:26;9.47;;;2.97;;
7939;SDS011;4015;48.888;9.226;2024-03-23T09:37:51;6.80;;;3.33;;
7939;SDS011;4015;48.888;9.226;2024-03-23T09:40:17;6.37;;;2.87;;
7939;SDS011;4015;48.888;9.226;2024-03-23T09:42:42;5.57;;;2.70;;
7939;SDS011;4015;48.888;9.226;2024-03-23T09:45:17;6.20;;;2.53;;
7939;SDS011;4015;48.888;9.226;2024-03-23T09:47:46;3.47;;;2.30;;
7939;SDS011;4015;48.888;9.226;2024-03-23T09:50:12;4.67;;;2.60;;
7939;SDS011;4015;48.888;9.226;2024-03-23T09:52:38;5.17;;;2.47;;
7939;SDS011;4015;48.888;9.226;2024-03-23T09:55:05;6.50;;;2.57;;
7939;SDS011;4015;48.888;9.226;2024-03-23T09:57:31;6.65;;;2.63;;
7939;SDS011;4015;48.888;9.226;2024-03-23T09:59:56;5.85;;;2.53;;
7939;SDS011;4015;48.888;9.226;2024-03-23T10:02:23;4.45;;;2.15;;
7939;SDS011;4015;48.888;9.226;2024-03-23T10:04:49;4.20;;;2.50;;
7939;SDS011;4015;48.888;9.226;2024-03-23T10:07:15;6.30;;;2.45;;
7939;SDS011;4015;48.888;9.226;2024-03-23T10:09:43;6.22;;;2.85;;
7939;SDS011;4015;48.888;9.226;2024-03-23T10:12:12;5.23;;;2.00;;
7939;SDS011;4015;48.888;9.226;2024-03-23T10:14:39;5.57;;;2.50;;
7939;SDS011;4015;48.888;9.226;2024-03-23T10:17:17;4.80;;;2.20;;
7939;SDS011;4015;48.888;9.226;2024-03-23T10:19:43;6.27;;;2.87;;
7939;SDS011;4015;48.888;9.226;2024-03-23T10:22:17;3.97;;;2.37;;
7939;SDS011;4015;48.888;9.226;2024-03-23T10:24:43;4.63;;;2.57;;
7939;SDS011;4015;48.888;9.226;2024-03-23T10:27:08;7.00;;;3.43;;
7939;SDS011;4015;48.888;9.226;2024-03-23T10:29:40;7.30;;;2.87;;
7939;SDS011;4015;48.888;9.226;2024-03-23T10:32:12;3.53;;;2.80;;
7939;SDS011;4015;48.888;9.226;2024-03-23T10:34:39;7.57;;;2.87;;
7939;SDS011;4015;48.888;9.226;2024-03-23T10:37:05;7.07;;;2.43;;
7939;SDS011;4015;48.888;9.226;2024-03-23T10:39:32;7.20;;;3.03;;
7939;SDS011;4015;48.888;9.226;2024-03-23T10:42:00;5.13;;;2.70;;
7939;SDS011;4015;48.888;9.226;2024-03-23T10:44:27;8.33;;;3.03;;
7939;SDS011;4015;48.888;9.226;2024-03-23T10:46:55;4.53;;;2.60;;
7939;SDS011;4015;48.888;9.226;2024-03-23T10:49:23;6.40;;;2.90;;
7939;SDS011;4015;48.888;9.226;2024-03-23T10:51:51;11.57;;;3.10;;
7939;SDS011;4015;48.888;9.226;2024-03-23T10:54:16;3.50;;;2.77;;
7939;SDS011;4015;48.888;9.226;2024-03-23T10:56:43;9.63;;;3.60;;
7939;SDS011;4015;48.888;9.226;2024-03-23T10:59:09;6.77;;;3.57;;
7939;SDS011;4015;48.888;9.226;2024-03-23T11:01:35;8.97;;;3.93;;
7939;SDS011;4015;48.888;9.226;2024-03-23T11:04:34;11.00;;;3.67;;
7939;SDS011;4015;48.888;9.226;2024-03-23T11:07:00;10.73;;;4.80;;
7939;SDS011;4015;48.888;9.226;2024-03-23T11:09:39;10.50;;;4.83;;
7939;SDS011;4015;48.888;9.226;2024-03-23T11:17:31;7.83;;;4.83;;
7939;SDS011;4015;48.888;9.226;2024-03-23T11:25:16;8.13;;;5.30;;
7939;SDS011;4015;48.888;9.226;2024-03-23T11:27:43;6.30;;;3.93;;
7939;SDS011;4015;48.888;9.226;2024-03-23T11:30:12;5.03;;;3.40;;
7939;SDS011;4015;48.888;9.226;2024-03-23T11:32:39;4.03;;;2.80;;
7939;SDS011;4015;48.888;9.226;2024-03-23T11:35:05;3.23;;;2.27;;
7939;SDS011;4015;48.888;9.226;2024-03-23T11:37:31;5.90;;;2.90;;
7939;SDS011;4015;48.888;9.226;2024-03-23T11:39:56;5.93;;;3.13;;
7939;SDS011;4015;48.888;9.226;2024-03-23T11:42:21;5.07;;;2.90;;
7939;SDS011;4015;48.888;9.226;2024-03-23T11:44:47;4.07;;;3.20;;
7939;SDS011;4015;48.888;9.226;2024-03-23T11:47:12;6.63;;;2.93;;
7939;SDS011;4015;48.888;9.226;2024-03-23T11:49:37;6.60;;;3.00;;
7939;SDS011;4015;48.888;9.226;2024-03-23T11:52:06;5.57;;;3.17;;
7939;SDS011;4015;48.888;9.226;2024-03-23T11:54:32;9.27;;;3.10;;
7939;SDS011;4015;48.888;9.226;2024-03-23T11:57:02;5.10;;;3.10;;
7939;SDS011;4015;48.888;9.226;2024-03-23T11:59:30;3.33;;;2.63;;
7939;SDS011;4015;48.888;9.226;2024-03-23T12:02:09;3.07;;;2.00;;
7939;SDS011;4015;48.888;9.226;2024-03-23T12:04:36;5.83;;;2.97;;
7939;SDS011;4015;48.888;9.226;2024-03-23T12:07:12;7.47;;;3.03;;
7939;SDS011;4015;48.888;9.226;2024-03-23T12:09:38;4.73;;;2.80;;
7939;SDS011;4015;48.888;9.226;2024-03-23T12:12:08;3.97;;;2.80;;
7939;SDS011;4015;48.888;9.226;2024-03-23T12:14:43;8.63;;;2.77;;
7939;SDS011;4015;48.888;9.226;2024-03-23T12:19:38;5.10;;;2.27;;
7939;SDS011;4015;48.888;9.226;2024-03-23T12:22:05;5.23;;;2.03;;
7939;SDS011;4015;48.888;9.226;2024-03-23T12:24:32;4.60;;;1.87;;
7939;SDS011;4015;48.888;9.226;2024-03-23T12:26:59;5.77;;;2.13;;
7939;SDS011;4015;48.888;9.226;2024-03-23T12:29:27;6.67;;;2.37;;
7939;SDS011;4015;48.888;9.226;2024-03-23T12:31:53;3.93;;;1.80;;
7939;SDS011;4015;48.888;9.226;2024-03-23T12:34:18;5.20;;;2.00;;
7939;SDS011;4015;48.888;9.226;2024-03-23T12:36:44;3.23;;;2.03;;
7939;SDS011;4015;48.888;9.226;2024-03-23T12:39:09;4.63;;;2.03;;
7939;SDS011;4015;48.888;9.226;2024-03-23T12:41:34;6.70;;;2.10;;
7939;SDS011;4015;48.888;9.226;2024-03-23T12:44:00;7.37;;;2.27;;
7939;SDS011;4015;48.888;9.226;2024-03-23T12:46:25;6.20;;;1.93;;
7939;SDS011;4015;48.888;9.226;2024-03-23T12:48:50;5.33;;;2.00;;
7939;SDS011;4015;48.888;9.226;2024-03-23T12:51:16;7.33;;;2.30;;
7939;SDS011;4015;48.888;9.226;2024-03-23T12:53:41;8.47;;;2.13;;
7939;SDS011;4015;48.888;9.226;2024-03-23T12:56:06;5.27;;;1.70;;
7939;SDS011;4015;48.888;9.226;2024-03-23T12:58:32;5.80;;;2.73;;
7939;SDS011;4015;48.888;9.226;2024-03-23T13:00:58;6.13;;;2.17;;
7939;SDS011;4015;48.888;9.226;2024-03-23T13:03:23;4.45;;;1.77;;
7939;SDS011;4015;48.888;9.226;2024-03-23T13:05:52;6.57;;;2.13;;
7939;SDS011;4015;48.888;9.226;2024-03-23T13:08:17;7.35;;;2.08;;
7939;SDS011;4015;48.888;9.226;2024-03-23T13:10:43;5.70;;;2.38;;
7939;SDS011;4015;48.888;9.226;2024-03-23T13:13:09;3.00;;;1.70;;
7939;SDS011;4015;48.888;9.226;2024-03-23T13:15:35;4.65;;;1.83;;
7939;SDS011;4015;48.888;9.226;2024-03-23T13:18:00;3.25;;;1.92;;
7939;SDS011;4015;48.888;9.226;2024-03-23T13:20:26;4.15;;;2.03;;
7939;SDS011;4015;48.888;9.226;2024-03-23T13:22:51;5.72;;;2.00;;
7939;SDS011;4015;48.888;9.226;2024-03-23T13:25:17;2.58;;;1.45;;
7939;SDS011;4015;48.888;9.226;2024-03-23T13:27:43;5.97;;;1.98;;
7939;SDS011;4015;48.888;9.226;2024-03-23T13:30:09;4.85;;;1.73;;
7939;SDS011;4015;48.888;9.226;2024-03-23T13:32:35;5.10;;;1.83;;
7939;SDS011;4015;48.888;9.226;2024-03-23T13:35:00;5.05;;;2.10;;
7939;SDS011;4015;48.888;9.226;2024-03-23T13:37:26;4.50;;;1.98;;
7939;SDS011;4015;48.888;9.226;2024-03-23T13:39:51;7.20;;;1.80;;
7939;SDS011;4015;48.888;9.226;2024-03-23T13:42:16;5.25;;;1.48;;
7939;SDS011;4015;48.888;9.226;2024-03-23T13:44:42;4.63;;;1.95;;
7939;SDS011;4015;48.888;9.226;2024-03-23T13:47:08;4.55;;;1.42;;
7939;SDS011;4015;48.888;9.226;2024-03-23T13:49:33;3.92;;;1.73;;
7939;SDS011;4015;48.888;9.226;2024-03-23T13:51:59;7.53;;;2.03;;
7939;SDS011;4015;48.888;9.226;2024-03-23T13:54:25;4.47;;;1.73;;
7939;SDS011;4015;48.888;9.226;2024-03-23T13:56:51;4.60;;;1.70;;
7939;SDS011;4015;48.888;9.226;2024-03-23T13:59:17;4.67;;;1.60;;
7939;SDS011;4015;48.888;9.226;2024-03-23T14:01:43;4.67;;;1.67;;
7939;SDS011;4015;48.888;9.226;2024-03-23T14:04:10;3.60;;;1.80;;
7939;SDS011;4015;48.888;9.226;2024-03-23T14:06:36;4.93;;;1.30;;
7939;SDS011;4015;48.888;9.226;2024-03-23T14:09:01;3.60;;;1.20;;
7939;SDS011;4015;48.888;9.226;2024-03-23T14:11:28;3.37;;;1.60;;
7939;SDS011;4015;48.888;9.226;2024-03-23T14:13:53;3.60;;;1.70;;
7939;SDS011;4015;48.888;9.226;2024-03-23T14:16:19;5.10;;;1.90;;
7939;SDS011;4015;48.888;9.226;2024-03-23T14:18:47;3.97;;;1.60;;
7939;SDS011;4015;48.888;9.226;2024-03-23T14:21:13;5.03;;;2.20;;
7939;SDS011;4015;48.888;9.226;2024-03-23T14:23:38;6.60;;;1.47;;
7939;SDS011;4015;48.888;9.226;2024-03-23T14:26:05;6.80;;;1.77;;
7939;SDS011;4015;48.888;9.226;2024-03-23T14:28:31;5.80;;;1.70;;
7939;SDS011;4015;48.888;9.226;2024-03-23T14:30:57;4.50;;;1.90;;
7939;SDS011;4015;48.888;9.226;2024-03-23T14:33:22;1.70;;;1.50;;
7939;SDS011;4015;48.888;9.226;2024-03-23T14:35:52;4.10;;;1.60;;
7939;SDS011;4015;48.888;9.226;2024-03-23T14:38:19;2.77;;;1.30;;
7939;SDS011;4015;48.888;9.226;2024-03-23T14:40:45;3.13;;;1.37;;
7939;SDS011;4015;48.888;9.226;2024-03-23T14:43:11;3.87;;;1.30;;
7939;SDS011;4015;48.888;9.226;2024-03-23T14:45:36;4.80;;;1.10;;
7939;SDS011;4015;48.888;9.226;2024-03-23T14:48:01;5.45;;;2.22;;
7939;SDS011;4015;48.888;9.226;2024-03-23T14:50:27;2.25;;;1.15;;
7939;SDS011;4015;48.888;9.226;2024-03-23T14:52:52;3.80;;;1.45;;
7939;SDS011;4015;48.888;9.226;2024-03-23T14:55:18;3.55;;;0.88;;
7939;SDS011;4015;48.888;9.226;2024-03-23T14:57:44;3.60;;;1.60;;
7939;SDS011;4015;48.888;9.226;2024-03-23T15:00:09;4.27;;;2.63;;
7939;SDS011;4015;48.888;9.226;2024-03-23T15:02:38;5.27;;;1.97;;
7939;SDS011;4015;48.888;9.226;2024-03-23T15:05:05;2.93;;;1.50;;
7939;SDS011;4015;48.888;9.226;2024-03-23T15:07:34;5.73;;;1.93;;
7939;SDS011;4015;48.888;9.226;2024-03-23T15:10:00;5.00;;;1.63;;
7939;SDS011;4015;48.888;9.226;2024-03-23T15:12:25;3.93;;;1.80;;
7939;SDS011;4015;48.888;9.226;2024-03-23T15:14:51;4.37;;;1.50;;
7939;SDS011;4015;48.888;9.226;2024-03-23T15:17:16;6.20;;;1.60;;
7939;SDS011;4015;48.888;9.226;2024-03-23T15:19:41;4.87;;;2.23;;
7939;SDS011;4015;48.888;9.226;2024-03-23T15:22:07;2.77;;;1.37;;
7939;SDS011;4015;48.888;9.226;2024-03-23T15:24:33;2.17;;;0.90;;
7939;SDS011;4015;48.888;9.226;2024-03-23T15:27:00;1.30;;;1.00;;
7939;SDS011;4015;48.888;9.226;2024-03-23T15:29:26;1.93;;;0.90;;
7939;SDS011;4015;48.888;9.226;2024-03-23T15:31:51;1.43;;;1.30;;
7939;SDS011;4015;48.888;9.226;2024-03-23T15:34:18;4.73;;;1.07;;
7939;SDS011;4015;48.888;9.226;2024-03-23T15:36:46;1.58;;;0.80;;
7939;SDS011;4015;48.888;9.226;2024-03-23T15:39:12;2.72;;;1.00;;
7939;SDS011;4015;48.888;9.226;2024-03-23T15:41:39;1.75;;;1.00;;
7939;SDS011;4015;48.888;9.226;2024-03-23T15:44:04;3.33;;;0.90;;
7939;SDS011;4015;48.888;9.226;2024-03-23T15:46:30;1.88;;;0.93;;
7939;SDS011;4015;48.888;9.226;2024-03-23T15:48:55;3.53;;;1.17;;
7939;SDS011;4015;48.888;9.226;2024-03-23T15:51:21;2.78;;;1.00;;
7939;SDS011;4015;48.888;9.226;2024-03-23T15:53:46;2.38;;;0.90;;
7939;SDS011;4015;48.888;9.226;2024-03-23T15:56:12;2.00;;;1.10;;
7939;SDS011;4015;48.888;9.226;2024-03-23T15:58:37;2.67;;;1.10;;
7939;SDS011;4015;48.888;9.226;2024-03-23T16:01:04;4.27;;;1.10;;
7939;SDS011;4015;48.888;9.226;2024-03-23T16:03:31;2.33;;;1.10;;
7939;SDS011;4015;48.888;9.226;2024-03-23T16:05:58;2.30;;;1.07;;
7939;SDS011;4015;48.888;9.226;2024-03-23T16:08:24;3.70;;;1.43;;
7939;SDS011;4015;48.888;9.226;2024-03-23T16:10:50;3.87;;;1.30;;
7939;SDS011;4015;48.888;9.226;2024-03-23T16:13:16;1.60;;;1.00;;
7939;SDS011;4015;48.888;9.226;2024-03-23T16:15:43;1.87;;;1.07;;